Time;durP1;ratioP1;P1;durP2;ratioP2;P2;SDS_P1;SDS_P2;PMS_P1;PMS_P2;Temp;Humidity;BMP_temperature;BMP_pressure;BME280_temperature;BME280_humidity;BME280_pressure;Samples;Min_cycle;Max_cycle;Signal;HPM_P1;HPM_P2
2023/07/24 00:00:49;;;;;;;7.60;6.00;;;;;;;21.85;61.20;101173.13;5036422;28;20490;-74
2023/07/24 00:03:15;;;;;;;6.87;5.60;;;;;;;21.93;60.68;101180.88;5011794;28;20543;-74
2023/07/24 00:05:40;;;;;;;9.17;6.10;;;;;;;21.88;60.93;101182.66;5013113;28;20396;-74
2023/07/24 00:08:06;;;;;;;6.80;5.53;;;;;;;21.86;61.18;101177.47;5025361;28;20489;-74
2023/07/24 00:10:32;;;;;;;9.63;5.90;;;;;;;21.91;61.02;101180.31;5029356;28;20907;-74
2023/07/24 00:12:57;;;;;;;7.93;6.18;;;;;;;21.96;60.82;101180.41;5029352;28;20382;-75
2023/07/24 00:15:23;;;;;;;10.27;6.60;;;;;;;22.03;60.52;101192.97;5028688;28;20375;-75
2023/07/24 00:17:49;;;;;;;6.97;6.03;;;;;;;22.03;60.75;101187.56;5029334;28;20482;-74
2023/07/24 00:20:14;;;;;;;8.63;6.20;;;;;;;22.02;60.70;101183.22;5031711;28;20375;-74
2023/07/24 00:22:40;;;;;;;7.27;6.00;;;;;;;22.12;60.31;101175.34;5032664;28;20476;-74
2023/07/24 00:25:06;;;;;;;8.88;6.22;;;;;;;22.17;60.19;101170.06;5030677;28;20858;-74
2023/07/24 00:27:31;;;;;;;9.13;6.50;;;;;;;22.08;60.25;101168.78;5029938;28;20410;-74
2023/07/24 00:29:57;;;;;;;8.33;6.10;;;;;;;21.92;61.09;101168.44;5030619;28;20853;-74
2023/07/24 00:32:22;;;;;;;7.97;5.80;;;;;;;21.89;61.04;101158.09;5030771;28;20383;-74
2023/07/24 00:34:48;;;;;;;7.15;6.20;;;;;;;21.91;61.15;101163.25;5030702;28;20393;-74
2023/07/24 00:37:13;;;;;;;7.63;5.87;;;;;;;21.97;61.00;101151.53;5029684;28;20375;-74
2023/07/24 00:39:39;;;;;;;8.85;6.38;;;;;;;22.03;60.96;101166.78;5033772;28;20383;-75
2023/07/24 00:42:04;;;;;;;7.03;6.10;;;;;;;21.91;61.03;101166.81;5031551;28;20475;-75
2023/07/24 00:44:30;;;;;;;14.43;6.40;;;;;;;22.01;60.87;101174.31;5030722;28;20382;-75
2023/07/24 00:46:56;;;;;;;8.25;5.85;;;;;;;22.06;60.71;101176.31;5030813;28;20453;-75
2023/07/24 00:49:21;;;;;;;7.60;6.17;;;;;;;22.02;60.49;101170.56;5031068;28;20470;-74
2023/07/24 00:51:47;;;;;;;7.28;5.97;;;;;;;21.94;60.82;101171.72;5031119;28;20850;-73
2023/07/24 00:54:16;;;;;;;8.32;5.80;;;;;;;21.87;61.24;101173.72;5030824;28;20381;-73
2023/07/24 00:56:44;;;;;;;8.23;6.40;;;;;;;21.77;61.49;101168.91;5046247;28;20382;-74
2023/07/24 00:59:10;;;;;;;8.95;5.85;;;;;;;21.82;61.25;101170.06;5030528;28;20374;-75
2023/07/24 01:01:37;;;;;;;8.80;6.15;;;;;;;21.91;60.98;101164.09;5030598;28;20417;-75
2023/07/24 01:04:05;;;;;;;8.32;6.25;;;;;;;22.03;60.64;101171.38;5030584;28;20378;-75
2023/07/24 01:06:30;;;;;;;7.68;5.90;;;;;;;22.04;60.40;101175.69;5030656;28;20536;-75
2023/07/24 01:08:56;;;;;;;8.93;6.28;;;;;;;22.11;60.43;101171.00;5030697;28;20823;-75
2023/07/24 01:11:33;;;;;;;8.00;5.93;;;;;;;22.25;59.74;101175.09;5030563;28;20440;-75
2023/07/24 01:14:15;;;;;;;8.15;5.90;;;;;;;22.30;59.71;101172.53;5030316;28;20389;-75
2023/07/24 01:16:46;;;;;;;8.85;6.47;;;;;;;22.33;59.19;101177.47;5030499;28;20393;-75
2023/07/24 01:19:37;;;;;;;7.10;5.80;;;;;;;22.33;59.06;101168.56;5033215;28;20378;-75
2023/07/24 01:22:12;;;;;;;8.60;6.20;;;;;;;22.39;58.74;101178.41;5032986;28;20402;-75
2023/07/24 01:24:46;;;;;;;8.00;5.90;;;;;;;22.47;58.64;101179.91;5032626;28;20414;-75
2023/07/24 01:27:18;;;;;;;8.88;6.65;;;;;;;22.50;58.52;101166.75;5030248;28;20388;-75
2023/07/24 01:29:43;;;;;;;7.32;6.15;;;;;;;22.49;58.30;101158.88;5030293;28;20391;-75
2023/07/24 01:32:09;;;;;;;8.17;5.87;;;;;;;22.50;58.41;101163.25;5030630;28;20439;-75
2023/07/24 01:34:34;;;;;;;7.32;6.18;;;;;;;22.47;58.56;101169.94;5030176;28;20406;-75
2023/07/24 01:37:00;;;;;;;9.30;6.07;;;;;;;22.49;58.32;101170.53;5029943;28;20386;-74
2023/07/24 01:39:26;;;;;;;6.20;5.50;;;;;;;22.48;58.36;101168.06;5030313;28;20420;-75
2023/07/24 01:41:52;;;;;;;8.45;6.10;;;;;;;22.40;58.80;101171.97;5029921;28;20434;-75
2023/07/24 01:44:18;;;;;;;11.80;6.67;;;;;;;22.45;58.73;101169.34;5030217;28;20393;-75
2023/07/24 01:46:43;;;;;;;10.05;6.30;;;;;;;22.49;58.55;101157.03;5030244;28;20374;-74
2023/07/24 01:49:09;;;;;;;7.77;6.30;;;;;;;22.53;58.63;101168.19;5030076;28;20379;-75
2023/07/24 01:51:34;;;;;;;8.83;6.27;;;;;;;22.44;58.88;101169.59;5030191;28;20453;-75
2023/07/24 01:54:02;;;;;;;6.93;6.03;;;;;;;22.41;58.83;101179.00;5030183;28;20473;-75
2023/07/24 01:56:28;;;;;;;10.35;6.47;;;;;;;22.39;58.95;101173.00;5028641;28;20880;-75
2023/07/24 01:58:53;;;;;;;9.90;6.50;;;;;;;22.32;59.29;101175.03;5030122;28;20386;-75
2023/07/24 02:01:19;;;;;;;9.40;5.90;;;;;;;22.36;59.58;101178.06;5029982;28;20413;-75
2023/07/24 02:03:44;;;;;;;8.88;6.50;;;;;;;22.12;60.44;101178.06;5029956;28;20386;-75
2023/07/24 02:06:10;;;;;;;14.83;7.70;;;;;;;22.03;60.83;101171.38;5030075;28;20406;-75
2023/07/24 02:08:35;;;;;;;10.30;6.77;;;;;;;22.06;60.62;101168.22;5029947;28;20383;-75
2023/07/24 02:11:01;;;;;;;8.18;5.80;;;;;;;22.09;60.32;101170.41;5029651;28;20871;-75
2023/07/24 02:13:26;;;;;;;10.23;6.10;;;;;;;22.05;60.48;101172.78;5033689;28;20394;-75
2023/07/24 02:15:53;;;;;;;9.33;6.47;;;;;;;21.96;60.71;101171.50;5032555;28;20386;-75
2023/07/24 02:18:19;;;;;;;11.10;6.40;;;;;;;21.91;60.61;101166.81;5029949;28;20878;-75
2023/07/24 02:20:51;;;;;;;8.43;5.80;;;;;;;21.92;60.56;101173.03;5029638;28;20417;-75
2023/07/24 02:23:16;;;;;;;7.70;6.30;;;;;;;21.89;60.70;101163.50;5032942;28;20410;-75
2023/07/24 02:25:42;;;;;;;8.60;6.18;;;;;;;21.83;61.01;101169.03;5033407;28;20454;-75
2023/07/24 02:28:08;;;;;;;8.90;6.10;;;;;;;21.74;61.16;101168.53;5033703;28;20378;-75
2023/07/24 02:30:38;;;;;;;8.67;6.10;;;;;;;21.84;60.96;101159.84;5028213;28;20401;-75
2023/07/24 02:33:03;;;;;;;7.80;6.15;;;;;;;21.79;60.95;101159.72;5025049;28;20471;-76
2023/07/24 02:35:29;;;;;;;8.47;6.27;;;;;;;21.72;61.12;101171.47;5021120;28;20408;-75
2023/07/24 02:37:54;;;;;;;7.63;5.83;;;;;;;21.70;61.14;101178.97;5022557;28;20778;-75
2023/07/24 02:40:20;;;;;;;8.52;6.30;;;;;;;21.62;61.62;101186.59;5021184;28;20384;-76
2023/07/24 02:42:45;;;;;;;8.47;5.80;;;;;;;21.48;61.80;101183.28;5023677;28;20453;-75
2023/07/24 02:45:11;;;;;;;9.63;5.80;;;;;;;21.56;61.61;101178.38;5022793;28;20864;-75
2023/07/24 02:47:37;;;;;;;9.55;6.15;;;;;;;21.72;60.95;101182.28;5032598;28;20428;-75
2023/07/24 02:50:02;;;;;;;11.00;6.10;;;;;;;21.96;60.29;101190.38;5033550;28;20704;-75
2023/07/24 02:52:28;;;;;;;8.40;6.00;;;;;;;21.96;60.27;101193.06;5033709;28;20843;-75
2023/07/24 02:54:54;;;;;;;7.38;5.80;;;;;;;21.82;60.53;101189.78;5032180;28;20398;-75
2023/07/24 02:57:19;;;;;;;9.47;5.93;;;;;;;21.60;61.25;101200.31;5033602;28;20410;-74
2023/07/24 02:59:45;;;;;;;8.52;5.88;;;;;;;21.42;61.95;101189.56;5033118;28;20374;-74
2023/07/24 03:02:10;;;;;;;7.80;5.77;;;;;;;21.33;62.19;101187.19;5033148;28;20418;-74
2023/07/24 03:04:36;;;;;;;9.85;6.38;;;;;;;21.48;61.97;101196.75;5033187;28;20712;-74
2023/07/24 03:07:01;;;;;;;7.50;5.60;;;;;;;21.61;61.37;101188.47;5033141;28;20385;-75
2023/07/24 03:09:27;;;;;;;8.63;6.10;;;;;;;21.63;61.38;101194.47;5032902;28;20508;-75
2023/07/24 03:11:52;;;;;;;9.17;5.80;;;;;;;21.63;61.36;101193.66;5033164;28;20410;-75
2023/07/24 03:14:18;;;;;;;9.10;5.90;;;;;;;21.56;61.47;101196.44;5033429;28;20429;-75
2023/07/24 03:16:43;;;;;;;9.17;6.23;;;;;;;21.56;61.59;101191.03;5033020;28;20782;-75
2023/07/24 03:19:08;;;;;;;8.47;6.00;;;;;;;21.65;61.63;101186.94;5033108;28;20714;-76
2023/07/24 03:21:34;;;;;;;9.57;6.05;;;;;;;21.80;60.93;101189.19;5033424;28;20489;-76
2023/07/24 03:24:00;;;;;;;9.60;5.83;;;;;;;21.87;60.81;101183.69;5033011;28;20386;-74
2023/07/24 03:26:25;;;;;;;7.80;5.75;;;;;;;22.00;60.36;101190.72;5032748;28;20374;-74
2023/07/24 03:28:50;;;;;;;8.37;6.00;;;;;;;22.17;59.88;101188.97;5033248;28;20532;-74
2023/07/24 03:31:16;;;;;;;7.83;5.80;;;;;;;22.27;59.44;101186.53;5032175;28;20687;-75
2023/07/24 03:33:41;;;;;;;10.80;6.07;;;;;;;22.37;59.33;101183.22;5031621;28;20378;-75
2023/07/24 03:36:07;;;;;;;8.63;5.90;;;;;;;22.43;59.31;101181.47;5030743;28;20468;-75
2023/07/24 03:38:34;;;;;;;8.13;5.50;;;;;;;22.42;59.30;101187.91;5029444;28;20438;-75
2023/07/24 03:40:59;;;;;;;9.10;5.97;;;;;;;22.36;59.41;101196.97;5032199;28;20429;-75
2023/07/24 03:43:24;;;;;;;8.70;5.97;;;;;;;22.44;59.25;101188.53;5032275;28;20378;-76
2023/07/24 03:45:50;;;;;;;8.73;6.23;;;;;;;22.44;59.30;101189.34;5032418;28;20394;-75
2023/07/24 03:48:16;;;;;;;9.82;5.80;;;;;;;22.50;59.31;101184.84;5031828;28;20378;-76
2023/07/24 03:50:41;;;;;;;9.47;5.70;;;;;;;22.60;58.88;101181.53;5032603;28;20389;-76
2023/07/24 03:53:06;;;;;;;15.73;6.32;;;;;;;22.62;59.00;101176.72;5032412;28;20924;-77
2023/07/24 03:55:32;;;;;;;10.63;6.07;;;;;;;22.58;59.08;101171.00;5032833;28;20374;-76
2023/07/24 03:57:57;;;;;;;10.10;6.00;;;;;;;22.64;58.79;101166.50;5032330;28;20417;-76
2023/07/24 04:00:23;;;;;;;11.20;6.40;;;;;;;22.68;58.59;101168.47;5030545;28;20440;-75
2023/07/24 04:02:48;;;;;;;12.20;6.63;;;;;;;;;;5031435;28;20866;-76
2023/07/24 04:05:14;;;;;;;9.07;6.03;;;;;;;22.73;58.35;101181.28;5035239;28;20390;-75
2023/07/24 04:07:39;;;;;;;11.00;6.43;;;;;;;22.83;58.71;101184.19;5031364;28;20451;-75
2023/07/24 04:10:06;;;;;;;9.02;6.43;;;;;;;22.88;58.53;101178.03;5031734;28;20744;-75
2023/07/24 04:12:31;;;;;;;9.90;6.75;;;;;;;22.88;58.29;101173.44;5031356;28;20385;-75
2023/07/24 04:14:57;;;;;;;9.30;6.20;;;;;;;22.89;58.54;101180.50;5031979;28;20374;-74
2023/07/24 04:17:22;;;;;;;11.25;6.78;;;;;;;22.97;58.49;101184.72;5031840;28;20409;-74
2023/07/24 04:19:48;;;;;;;10.93;7.00;;;;;;;23.01;58.41;101188.59;5031909;28;20877;-75
2023/07/24 04:22:13;;;;;;;10.40;6.50;;;;;;;23.03;58.30;101196.44;5032822;28;20489;-74
2023/07/24 04:24:39;;;;;;;12.30;7.57;;;;;;;23.03;58.24;101199.13;5033842;28;20405;-77
2023/07/24 04:27:04;;;;;;;10.33;6.90;;;;;;;23.12;58.37;101196.91;5031340;28;20387;-74
2023/07/24 04:29:30;;;;;;;11.83;7.20;;;;;;;23.17;58.18;101195.13;5032485;28;20390;-75
2023/07/24 04:31:55;;;;;;;10.77;7.15;;;;;;;23.17;58.09;101199.72;5032157;28;20391;-74
2023/07/24 04:34:21;;;;;;;10.83;7.13;;;;;;;23.16;58.15;101195.38;5031952;28;20401;-76
2023/07/24 04:36:46;;;;;;;10.60;6.83;;;;;;;23.19;58.15;101189.47;5031506;28;20449;-76
2023/07/24 04:39:12;;;;;;;11.18;7.35;;;;;;;23.21;57.99;101184.63;5031725;28;20394;-75
2023/07/24 04:41:37;;;;;;;11.63;7.70;;;;;;;23.26;57.47;101187.44;5031391;28;20955;-75
2023/07/24 04:44:03;;;;;;;13.30;7.37;;;;;;;23.33;58.00;101190.81;5031521;28;20386;-76
2023/07/24 04:46:28;;;;;;;12.20;7.90;;;;;;;23.32;58.01;101188.34;5030987;28;20497;-76
2023/07/24 04:48:54;;;;;;;10.73;7.30;;;;;;;23.36;57.65;101178.69;5031272;28;20414;-76
2023/07/24 04:51:19;;;;;;;15.07;7.90;;;;;;;23.51;57.53;101173.53;5030892;28;20405;-76
2023/07/24 04:53:45;;;;;;;9.93;6.93;;;;;;;23.60;57.13;101180.16;5031687;28;20858;-76
2023/07/24 04:56:10;;;;;;;11.77;7.53;;;;;;;23.70;56.87;101176.81;5031775;28;20374;-76
2023/07/24 04:58:36;;;;;;;12.27;6.93;;;;;;;23.85;56.70;101181.69;5031357;28;20449;-75
2023/07/24 05:01:05;;;;;;;12.85;7.03;;;;;;;23.86;56.54;101175.22;5030928;28;20500;-75
2023/07/24 05:03:32;;;;;;;13.27;7.20;;;;;;;23.77;56.50;101182.06;5031535;28;20474;-75
2023/07/24 05:05:57;;;;;;;11.90;7.13;;;;;;;23.76;56.71;101183.13;5031453;28;20861;-75
2023/07/24 05:08:23;;;;;;;14.75;8.02;;;;;;;23.74;56.72;101186.09;5031913;28;20461;-75
2023/07/24 05:10:56;;;;;;;12.88;8.68;;;;;;;23.72;56.83;101188.22;5031561;28;20386;-75
2023/07/24 05:13:22;;;;;;;10.75;7.70;;;;;;;23.53;57.50;101184.09;5031349;28;20378;-75
2023/07/24 05:15:47;;;;;;;16.52;8.90;;;;;;;23.64;57.34;101172.38;5031346;28;20383;-77
2023/07/24 05:18:13;;;;;;;17.97;9.90;;;;;;;23.72;57.06;101179.28;5031786;28;20382;-75
2023/07/24 05:20:42;;;;;;;13.80;9.20;;;;;;;23.82;57.03;101180.31;5029857;28;20762;-75
2023/07/24 05:23:07;;;;;;;12.05;8.60;;;;;;;24.00;56.68;101189.22;5031190;28;20386;-76
2023/07/24 05:25:33;;;;;;;13.00;8.77;;;;;;;24.08;56.63;101183.38;5023314;28;20390;-74
2023/07/24 05:27:58;;;;;;;12.57;7.10;;;;;;;24.18;56.44;101179.97;5020232;28;20394;-75
2023/07/24 05:30:24;;;;;;;15.10;8.50;;;;;;;24.30;56.32;101172.56;5019018;28;20382;-75
2023/07/24 05:32:49;;;;;;;16.13;9.83;;;;;;;24.43;56.18;101176.78;5019514;28;20389;-74
2023/07/24 05:35:14;;;;;;;12.23;7.30;;;;;;;24.61;55.48;101175.69;5020632;28;20792;-76
2023/07/24 05:37:40;;;;;;;11.00;6.93;;;;;;;24.84;55.12;101177.31;5020032;28;20848;-74
2023/07/24 05:40:06;;;;;;;9.80;6.47;;;;;;;24.95;54.71;101170.13;5019314;28;20849;-74
2023/07/24 05:42:32;;;;;;;9.57;6.82;;;;;;;25.06;54.59;101173.75;5017756;28;20901;-75
2023/07/24 05:44:57;;;;;;;12.75;7.63;;;;;;;25.17;54.39;101176.31;5016154;28;20902;-74
2023/07/24 05:47:23;;;;;;;16.55;7.35;;;;;;;25.37;54.27;101183.88;5017619;28;20950;-75
2023/07/24 05:49:48;;;;;;;11.07;7.10;;;;;;;25.50;53.82;101174.47;5017919;28;20390;-73
2023/07/24 05:52:14;;;;;;;11.30;7.20;;;;;;;25.51;53.44;101172.56;5020477;28;20681;-76
2023/07/24 05:54:39;;;;;;;18.92;13.18;;;;;;;25.52;53.46;101176.94;5019751;28;20387;-75
2023/07/24 05:57:05;;;;;;;12.23;6.70;;;;;;;25.55;53.24;101179.94;5023210;28;20511;-74
2023/07/24 05:59:31;;;;;;;13.63;8.10;;;;;;;25.59;53.10;101168.56;5020891;28;21049;-74
2023/07/24 06:01:56;;;;;;;11.38;7.35;;;;;;;25.85;52.89;101173.09;5031990;28;20409;-73
2023/07/24 06:04:21;;;;;;;12.23;7.57;;;;;;;26.05;52.46;101168.91;5042979;28;20384;-75
2023/07/24 06:06:47;;;;;;;11.80;7.60;;;;;;;26.09;51.94;101168.13;5045602;28;20402;-75
2023/07/24 06:09:12;;;;;;;11.27;7.27;;;;;;;26.23;51.87;101160.31;5034934;28;20386;-75
2023/07/24 06:11:38;;;;;;;11.77;7.83;;;;;;;26.09;52.14;101168.13;5032590;28;20765;-76
2023/07/24 06:14:03;;;;;;;13.23;7.85;;;;;;;26.16;52.54;101167.06;5034447;28;21050;-75
2023/07/24 06:16:29;;;;;;;11.90;9.37;;;;;;;26.17;52.31;101172.25;5047371;28;20385;-75
2023/07/24 06:18:54;;;;;;;11.30;8.00;;;;;;;26.21;52.25;101175.25;4989810;28;20447;-76
2023/07/24 06:21:20;;;;;;;10.40;7.77;;;;;;;26.06;52.56;101167.84;5051930;28;20408;-74
2023/07/24 06:23:45;;;;;;;11.02;7.50;;;;;;;26.02;52.17;101159.41;5051243;28;20385;-75
2023/07/24 06:26:11;;;;;;;10.52;7.65;;;;;;;25.90;52.43;101156.03;5053187;28;20479;-75
2023/07/24 06:28:36;;;;;;;13.00;7.80;;;;;;;26.02;52.46;101159.41;5052647;28;20384;-74
2023/07/24 06:31:01;;;;;;;13.10;8.60;;;;;;;26.16;51.59;101165.16;5052866;28;20410;-75
2023/07/24 06:33:27;;;;;;;11.70;7.63;;;;;;;26.41;51.53;101177.25;5052837;28;20457;-74
2023/07/24 06:35:52;;;;;;;13.73;8.50;;;;;;;26.38;51.22;101175.91;5052802;28;20788;-76
2023/07/24 06:38:21;;;;;;;11.98;8.77;;;;;;;26.41;51.11;101166.38;5052333;28;20825;-75
2023/07/24 06:40:46;;;;;;;13.05;8.50;;;;;;;26.61;50.80;101177.34;5051772;28;20388;-75
2023/07/24 06:43:12;;;;;;;11.50;7.90;;;;;;;26.73;50.04;101177.13;5052897;28;20395;-76
2023/07/24 06:45:37;;;;;;;11.83;7.60;;;;;;;27.00;49.48;101162.50;5049473;28;20392;-75
2023/07/24 06:48:03;;;;;;;12.57;8.10;;;;;;;27.09;49.54;101175.31;5052393;28;20376;-76
2023/07/24 06:50:28;;;;;;;10.65;7.95;;;;;;;26.82;49.46;101180.16;5038911;28;20393;-75
2023/07/24 06:52:54;;;;;;;12.30;8.07;;;;;;;27.02;49.50;101190.28;5053126;28;20381;-74
2023/07/24 06:55:20;;;;;;;12.73;8.95;;;;;;;26.84;49.58;101192.38;5052510;28;20407;-74
2023/07/24 06:57:45;;;;;;;12.27;8.85;;;;;;;26.80;50.10;101187.78;5051613;28;20424;-74
2023/07/24 07:00:11;;;;;;;11.40;8.67;;;;;;;26.76;50.45;101192.94;5038443;28;20397;-74
2023/07/24 07:02:37;;;;;;;13.43;8.35;;;;;;;26.87;50.15;101193.78;5051746;28;20496;-74
2023/07/24 07:05:04;;;;;;;13.07;8.88;;;;;;;26.67;50.48;101181.75;5052521;28;20387;-74
2023/07/24 07:07:29;;;;;;;12.07;8.63;;;;;;;26.84;50.52;101186.94;5052353;28;20384;-75
2023/07/24 07:09:55;;;;;;;10.97;7.80;;;;;;;26.91;50.75;101180.47;5051982;28;20375;-75
2023/07/24 07:12:20;;;;;;;10.40;7.53;;;;;;;27.06;50.21;101175.88;5052225;28;20864;-75
2023/07/24 07:14:46;;;;;;;11.00;7.77;;;;;;;27.27;49.43;101173.19;5050802;28;20382;-74
2023/07/24 07:17:11;;;;;;;10.48;7.70;;;;;;;27.27;49.05;101165.03;5044953;28;20418;-75
2023/07/24 07:19:37;;;;;;;14.33;8.20;;;;;;;27.11;49.39;101166.06;5046676;28;20872;-73
2023/07/24 07:22:02;;;;;;;12.13;8.43;;;;;;;27.09;49.85;101161.69;5051859;28;20432;-75
2023/07/24 07:24:28;;;;;;;10.83;7.67;;;;;;;27.05;49.87;101155.19;5052116;28;20377;-74
2023/07/24 07:26:53;;;;;;;10.80;8.15;;;;;;;27.23;49.83;101153.03;5052246;28;20418;-73
2023/07/24 07:29:19;;;;;;;10.37;7.43;;;;;;;27.21;49.58;101150.56;5051554;28;20442;-74
2023/07/24 07:31:44;;;;;;;9.73;7.13;;;;;;;27.14;49.26;101147.28;5044553;28;20378;-74
2023/07/24 07:34:10;;;;;;;11.77;7.03;;;;;;;27.30;48.83;101144.59;5047338;28;20385;-74
2023/07/24 07:36:35;;;;;;;10.03;6.60;;;;;;;27.49;48.77;101134.81;5052939;28;20385;-74
2023/07/24 07:39:01;;;;;;;10.18;6.47;;;;;;;27.75;47.78;101135.59;5051579;28;20423;-74
2023/07/24 07:41:26;;;;;;;8.57;6.07;;;;;;;27.71;47.70;101136.41;5050679;28;20408;-75
2023/07/24 07:43:52;;;;;;;8.47;6.40;;;;;;;27.69;47.69;101130.44;5051926;28;20381;-74
2023/07/24 07:46:17;;;;;;;10.23;6.20;;;;;;;27.85;47.79;101132.03;5043649;28;20840;-73
2023/07/24 07:48:43;;;;;;;9.20;6.55;;;;;;;28.10;47.26;101138.53;5045031;28;20845;-73
2023/07/24 07:51:08;;;;;;;10.10;6.63;;;;;;;28.06;46.90;101138.28;5051081;28;20707;-74
2023/07/24 07:53:34;;;;;;;7.97;6.60;;;;;;;28.06;47.09;101146.44;5051000;28;20833;-74
2023/07/24 07:55:59;;;;;;;7.70;6.77;;;;;;;28.15;46.96;101138.53;5051755;28;20505;-74
2023/07/24 07:58:25;;;;;;;8.77;6.57;;;;;;;28.17;46.90;101142.59;5047758;28;20428;-74
2023/07/24 08:00:51;;;;;;;6.47;5.47;;;;;;;28.16;45.92;101138.25;5030757;28;21041;-74
2023/07/24 08:03:16;;;;;;;7.47;5.97;;;;;;;28.27;45.76;101135.47;5031482;28;20476;-72
2023/07/24 08:05:42;;;;;;;9.68;6.00;;;;;;;28.55;45.60;101128.56;5032132;28;20366;-72
2023/07/24 08:08:07;;;;;;;8.25;6.22;;;;;;;28.73;44.95;101138.00;5033154;28;20864;-74
2023/07/24 08:10:32;;;;;;;8.20;6.50;;;;;;;28.72;44.96;101129.03;5030732;28;20720;-75
2023/07/24 08:12:58;;;;;;;8.10;6.50;;;;;;;28.62;44.72;101134.53;5029435;28;20385;-75
2023/07/24 08:15:23;;;;;;;9.77;6.27;;;;;;;28.83;45.00;101129.78;5029959;28;20532;-74
2023/07/24 08:17:49;;;;;;;10.00;6.43;;;;;;;29.08;44.34;101130.66;5029574;28;20390;-73
2023/07/24 08:20:14;;;;;;;7.73;5.97;;;;;;;29.38;43.48;101131.56;5029271;28;20381;-74
2023/07/24 08:22:40;;;;;;;8.10;5.75;;;;;;;29.29;43.08;101126.72;5028837;28;20414;-72
2023/07/24 08:25:06;;;;;;;6.72;6.05;;;;;;;29.33;42.75;101119.59;5031168;28;21017;-72
2023/07/24 08:27:32;;;;;;;8.02;6.40;;;;;;;29.26;43.26;101123.72;5030807;28;20378;-75
2023/07/24 08:29:57;;;;;;;7.67;5.87;;;;;;;29.33;43.19;101122.31;5022472;28;20394;-73
2023/07/24 08:32:23;;;;;;;6.97;5.83;;;;;;;29.63;43.32;101114.94;5021826;28;20867;-74
2023/07/24 08:34:48;;;;;;;7.03;6.00;;;;;;;29.81;42.62;101118.88;5020116;28;20793;-74
2023/07/24 08:37:14;;;;;;;8.50;6.03;;;;;;;29.68;42.69;101111.34;5029810;28;20378;-73
2023/07/24 08:39:41;;;;;;;7.40;6.47;;;;;;;29.79;42.82;101114.81;5031238;28;20394;-74
2023/07/24 08:42:11;;;;;;;8.03;6.67;;;;;;;30.00;42.50;101109.91;5030879;28;20551;-74
2023/07/24 08:44:36;;;;;;;8.25;6.68;;;;;;;30.10;43.18;101101.59;5030872;28;20385;-75
2023/07/24 08:47:03;;;;;;;7.20;6.35;;;;;;;30.39;42.54;101103.44;5031476;28;20394;-76
2023/07/24 08:49:29;;;;;;;8.82;6.32;;;;;;;30.60;41.78;101104.78;5032058;28;20374;-75
2023/07/24 08:51:55;;;;;;;9.30;6.18;;;;;;;30.70;41.93;101109.28;5031238;28;20367;-73
2023/07/24 08:54:22;;;;;;;7.35;6.18;;;;;;;30.80;41.69;101109.13;5030940;28;20398;-74
2023/07/24 08:56:50;;;;;;;6.95;6.20;;;;;;;30.92;41.55;101106.00;5030599;28;20465;-73
2023/07/24 08:59:16;;;;;;;7.75;6.07;;;;;;;31.01;40.96;101100.66;5031211;28;20452;-74
2023/07/24 09:01:41;;;;;;;6.80;5.90;;;;;;;31.04;40.45;101097.31;5030420;28;20425;-74
2023/07/24 09:04:07;;;;;;;7.82;5.75;;;;;;;31.14;39.97;101099.88;5030473;28;20382;-74
2023/07/24 09:06:32;;;;;;;10.17;6.00;;;;;;;31.16;40.13;101096.84;5030975;28;20462;-74
2023/07/24 09:08:57;;;;;;;7.33;5.27;;;;;;;31.29;39.62;101096.06;5030304;28;20458;-76
2023/07/24 09:11:23;;;;;;;7.33;5.10;;;;;;;31.36;38.91;101101.16;5022829;28;20391;-76
2023/07/24 09:13:49;;;;;;;5.47;4.97;;;;;;;31.44;38.25;101098.53;5019678;28;20789;-75
2023/07/24 09:16:26;;;;;;;5.87;4.90;;;;;;;31.60;38.06;101092.78;5027208;28;20383;-75
2023/07/24 09:18:52;;;;;;;6.93;4.90;;;;;;;31.71;37.55;101085.19;5030256;28;20473;-77
2023/07/24 09:21:32;;;;;;;6.55;4.72;;;;;;;31.76;36.94;101085.88;5029500;28;20489;-75
2023/07/24 09:24:08;;;;;;;6.57;4.80;;;;;;;31.90;36.95;101085.09;5036509;28;20378;-76
2023/07/24 09:26:33;;;;;;;6.38;5.35;;;;;;;31.95;36.33;101077.56;5051320;28;20705;-76
2023/07/24 09:28:59;;;;;;;10.07;6.90;;;;;;;31.97;36.84;101072.59;5031341;28;20972;-76
2023/07/24 09:31:35;;;;;;;7.05;5.47;;;;;;;32.11;36.67;101071.81;5046193;28;20366;-75
2023/07/24 09:34:01;;;;;;;5.97;5.38;;;;;;;32.17;36.87;101060.41;5031263;28;20378;-75
2023/07/24 09:36:37;;;;;;;6.20;5.50;;;;;;;32.35;37.56;101066.88;5030906;28;20382;-75
2023/07/24 09:39:06;;;;;;;7.57;6.10;;;;;;;32.47;37.98;101060.84;5030720;28;20386;-75
2023/07/24 09:41:31;;;;;;;7.40;5.77;;;;;;;32.51;37.08;101063.78;5029459;28;20915;-76
2023/07/24 09:44:00;;;;;;;8.03;6.03;;;;;;;32.45;37.01;101065.00;5035448;28;20473;-75
2023/07/24 09:46:26;;;;;;;6.43;5.82;;;;;;;32.53;36.77;101062.34;5031857;28;20383;-75
2023/07/24 09:48:52;;;;;;;9.68;6.18;;;;;;;32.66;37.26;101060.69;5031774;28;20382;-75
2023/07/24 09:51:18;;;;;;;9.17;6.03;;;;;;;32.74;37.22;101057.22;5032449;28;20460;-75
2023/07/24 09:54:07;;;;;;;8.63;5.97;;;;;;;32.87;36.86;101060.22;5031599;28;20477;-76
2023/07/24 09:56:33;;;;;;;6.30;5.70;;;;;;;32.98;36.65;101055.28;5029726;28;20386;-77
2023/07/24 09:59:00;;;;;;;7.03;6.20;;;;;;;32.97;37.07;101046.19;5031390;28;20382;-77
2023/07/24 10:01:27;;;;;;;6.68;5.90;;;;;;;33.07;36.63;101040.47;5034966;28;20409;-76
2023/07/24 10:03:53;;;;;;;6.85;6.15;;;;;;;33.21;36.99;101042.34;5033675;28;20389;-78
2023/07/24 10:06:20;;;;;;;8.75;6.15;;;;;;;33.21;36.75;101032.16;5030592;28;20881;-76
2023/07/24 10:08:46;;;;;;;6.57;5.72;;;;;;;33.38;36.85;101028.69;5032164;28;20389;-76
2023/07/24 10:11:14;;;;;;;7.68;6.07;;;;;;;33.30;36.59;101040.47;5031097;28;20375;-76
2023/07/24 10:13:43;;;;;;;6.75;5.63;;;;;;;33.31;36.16;101036.56;5031015;28;20401;-77
2023/07/24 10:16:08;;;;;;;8.57;5.70;;;;;;;33.41;36.25;101032.75;5030578;28;20386;-74
2023/07/24 10:18:43;;;;;;;9.88;7.00;;;;;;;33.52;36.45;101025.81;5029710;28;20492;-75
2023/07/24 10:21:10;;;;;;;7.15;5.57;;;;;;;33.52;35.87;101021.13;5029520;28;20422;-76
2023/07/24 10:23:37;;;;;;;7.75;6.13;;;;;;;33.49;36.02;101024.53;5030470;28;20425;-75
2023/07/24 10:26:07;;;;;;;6.57;5.33;;;;;;;33.52;35.76;101025.81;5032179;28;20394;-76
2023/07/24 10:28:34;;;;;;;9.57;5.80;;;;;;;33.52;36.07;101028.56;5032524;28;20389;-76
2023/07/24 10:31:01;;;;;;;7.93;6.20;;;;;;;33.59;35.88;101017.13;5030963;28;20387;-76
2023/07/24 10:33:31;;;;;;;9.15;5.45;;;;;;;33.63;35.49;101012.59;5030835;28;20386;-73
2023/07/24 10:36:09;;;;;;;7.60;5.78;;;;;;;33.65;35.38;101010.34;5030390;28;20386;-74
2023/07/24 10:38:40;;;;;;;6.25;5.43;;;;;;;33.64;35.44;101006.00;5029100;28;20386;-76
2023/07/24 10:41:07;;;;;;;7.40;6.68;;;;;;;33.74;35.19;101010.41;5030811;28;20457;-74
2023/07/24 10:43:49;;;;;;;6.38;5.70;;;;;;;33.77;35.22;101004.25;5031338;28;20720;-76
2023/07/24 10:46:17;;;;;;;7.85;5.68;;;;;;;33.69;35.45;100997.59;5034906;28;20384;-76
2023/07/24 10:48:47;;;;;;;6.35;5.70;;;;;;;33.71;35.40;100993.41;5035078;28;20382;-75
2023/07/24 10:51:16;;;;;;;7.88;6.32;;;;;;;33.83;35.46;100991.97;5035152;28;20390;-75
2023/07/24 10:53:46;;;;;;;6.47;5.82;;;;;;;33.86;35.41;100991.34;5035001;28;20390;-75
2023/07/24 10:56:12;;;;;;;7.95;6.03;;;;;;;33.88;35.42;100989.06;5049824;28;20951;-75
2023/07/24 10:58:38;;;;;;;6.75;5.95;;;;;;;33.90;35.31;100989.56;5033913;28;20481;-75
2023/07/24 11:01:05;;;;;;;6.93;5.78;;;;;;;33.99;35.54;100978.56;5034778;28;20374;-75
2023/07/24 11:03:31;;;;;;;6.88;6.18;;;;;;;34.08;35.57;100979.38;5034756;28;20382;-75
2023/07/24 11:05:58;;;;;;;6.88;6.18;;;;;;;34.13;35.09;100970.16;5037060;28;20502;-75
2023/07/24 11:08:24;;;;;;;6.63;5.85;;;;;;;34.15;35.19;100970.66;5033754;28;20382;-75
2023/07/24 11:10:52;;;;;;;7.47;6.07;;;;;;;34.20;35.29;100971.31;5035226;28;20398;-76
2023/07/24 11:13:26;;;;;;;9.48;6.40;;;;;;;34.36;35.09;100955.13;5034653;28;20385;-78
2023/07/24 11:15:52;;;;;;;7.85;5.95;;;;;;;34.43;34.64;100944.44;5049052;28;20373;-76
2023/07/24 11:18:22;;;;;;;7.25;6.30;;;;;;;34.40;34.60;100941.53;5053163;28;20388;-75